Time,TemperatureF,DewpointF,PressureIn,WindDirection,WindDirectionDegrees,WindSpeedMPH,WindSpeedGustMPH,Humidity,HourlyPrecipIn,Conditions,Clouds,dailyrainin,SolarRadiationWatts/m^2,SoftwareType,DateUTC
2013-03-29 00:16:00,24.7,20.3,30.26,WNW,297,0.0,0.0,83,0.00,,,0.00,0,Wunderground v.1.15,2013-03-29 05:16:00,
2013-03-29 00:21:00,24.6,20.2,30.25,WNW,297,0.0,0.0,83,0.00,,,0.00,0,Wunderground v.1.15,2013-03-29 05:21:00,
2013-03-29 00:26:00,24.5,20.1,30.26,WNW,297,0.0,0.0,83,0.00,,,0.00,0,Wunderground v.1.15,2013-03-29 05:26:00,
2013-03-29 00:36:00,24.3,20.2,30.25,WNW,297,0.0,0.0,84,0.00,,,0.00,0,Wunderground v.1.15,2013-03-29 05:36:00,
2013-03-29 00:46:00,24.1,20.0,30.25,WNW,297,0.0,0.0,84,0.00,,,0.00,0,Wunderground v.1.15,2013-03-29 05:46:00,
2013-03-29 00:56:00,24.0,19.9,30.26,WNW,297,0.0,0.0,84,0.00,,,0.00,0,Wunderground v.1.15,2013-03-29 05:56:00,
2013-03-29 01:06:00,23.8,19.7,30.26,WNW,297,0.0,1.0,84,0.00,,,0.00,0,Wunderground v.1.15,2013-03-29 06:06:00,
2013-03-29 01:11:00,23.6,19.5,30.27,WNW,297,1.0,1.0,84,0.00,,,0.00,0,Wunderground v.1.15,2013-03-29 06:11:00,
2013-03-29 01:16:00,23.5,19.4,30.26,WNW,297,0.0,1.0,84,0.00,,,0.00,0,Wunderground v.1.15,2013-03-29 06:16:00,
2013-03-29 01:26:00,23.4,19.3,30.26,WNW,297,0.0,1.0,84,0.00,,,0.00,0,Wunderground v.1.15,2013-03-29 06:26:00,
2013-03-29 01:36:00,23.2,19.1,30.26,WNW,297,0.0,1.0,84,0.00,,,0.00,0,Wunderground v.1.15,2013-03-29 06:36:00,
2013-03-29 01:46:00,23.1,19.0,30.26,WNW,297,0.0,1.0,84,0.00,,,0.00,0,Wunderground v.1.15,2013-03-29 06:46:00,
2013-03-29 01:56:00,23.0,18.9,30.26,WNW,297,0.0,1.0,84,0.00,,,0.00,0,Wunderground v.1.15,2013-03-29 06:56:00,
2013-03-29 02:11:00,22.7,18.9,30.26,WNW,297,0.0,0.0,85,0.00,,,0.00,0,Wunderground v.1.15,2013-03-29 07:11:00,
2013-03-29 02:16:00,22.6,19.0,30.26,WNW,297,0.0,0.0,86,0.00,,,0.00,0,Wunderground v.1.15,2013-03-29 07:16:00,
2013-03-29 02:26:00,22.4,18.8,30.26,WNW,297,0.0,0.0,86,0.00,,,0.00,0,Wunderground v.1.15,2013-03-29 07:26:00,
2013-03-29 02:31:00,22.3,18.7,30.26,WNW,297,0.0,0.0,86,0.00,,,0.00,0,Wunderground v.1.15,2013-03-29 07:31:00,
2013-03-29 02:41:00,22.1,18.8,30.26,WNW,297,0.0,0.0,87,0.00,,,0.00,0,Wunderground v.1.15,2013-03-29 07:41:00,
2013-03-29 02:46:00,22.1,18.8,30.26,WNW,297,0.0,0.0,87,0.00,,,0.00,0,Wunderground v.1.15,2013-03-29 07:46:00,
2013-03-29 02:56:00,22.0,18.7,30.25,WNW,297,0.0,0.0,87,0.00,,,0.00,0,Wunderground v.1.15,2013-03-29 07:56:00,
2013-03-29 03:16:00,21.8,18.5,30.26,WNW,297,0.0,0.0,87,0.00,,,0.00,0,Wunderground v.1.15,2013-03-29 08:16:00,
2013-03-29 03:36:00,21.5,18.5,30.26,WNW,297,0.0,0.0,88,0.00,,,0.00,0,Wunderground v.1.15,2013-03-29 08:36:00,
2013-03-29 03:51:00,21.2,18.2,30.26,WNW,297,0.0,0.0,88,0.00,,,0.00,0,Wunderground v.1.15,2013-03-29 08:51:00,
2013-03-29 04:06:00,21.0,18.3,30.26,WNW,297,0.0,0.0,89,0.00,,,0.00,0,Wunderground v.1.15,2013-03-29 09:06:00,
2013-03-29 04:11:00,21.0,18.5,30.25,WNW,297,0.0,0.0,90,0.00,,,0.00,0,Wunderground v.1.15,2013-03-29 09:11:00,
2013-03-29 04:31:00,20.6,18.4,30.26,WNW,297,0.0,0.0,91,0.00,,,0.00,0,Wunderground v.1.15,2013-03-29 09:31:00,
2013-03-29 04:36:00,20.6,18.6,30.25,WNW,297,0.0,0.0,92,0.00,,,0.00,0,Wunderground v.1.15,2013-03-29 09:36:00,
2013-03-29 04:41:00,20.5,18.3,30.26,WNW,297,0.0,0.0,91,0.00,,,0.00,0,Wunderground v.1.15,2013-03-29 09:41:00,
2013-03-29 04:51:00,20.3,18.3,30.25,WNW,297,0.0,0.0,92,0.00,,,0.00,0,Wunderground v.1.15,2013-03-29 09:51:00,
2013-03-29 04:56:00,20.3,18.3,30.25,WNW,297,0.0,0.0,92,0.00,,,0.00,0,Wunderground v.1.15,2013-03-29 09:56:00,
2013-03-29 05:06:00,20.2,18.5,30.25,WNW,297,0.0,0.0,93,0.00,,,0.00,0,Wunderground v.1.15,2013-03-29 10:06:00,
2013-03-29 05:26:00,19.9,18.2,30.25,WNW,297,0.0,0.0,93,0.00,,,0.00,0,Wunderground v.1.15,2013-03-29 10:26:00,
2013-03-29 05:36:00,19.8,18.1,30.26,WNW,297,0.0,1.0,93,0.00,,,0.00,0,Wunderground v.1.15,2013-03-29 10:36:00,
2013-03-29 05:41:00,19.7,18.0,30.26,WNW,297,0.0,0.0,93,0.00,,,0.00,0,Wunderground v.1.15,2013-03-29 10:41:00,
2013-03-29 05:56:00,19.4,18.0,30.26,WNW,297,0.0,0.0,94,0.00,,,0.00,0,Wunderground v.1.15,2013-03-29 10:56:00,
2013-03-29 06:06:00,19.2,17.5,30.26,WNW,297,0.0,0.0,93,0.00,,,0.00,0,Wunderground v.1.15,2013-03-29 11:06:00,
2013-03-29 06:16:00,19.1,17.4,30.26,WNW,297,0.0,0.0,93,0.00,,,0.00,0,Wunderground v.1.15,2013-03-29 11:16:00,
2013-03-29 06:26:00,19.0,17.3,30.26,WNW,297,0.0,0.0,93,0.00,,,0.00,0,Wunderground v.1.15,2013-03-29 11:26:00,
2013-03-29 06:36:00,18.9,17.2,30.26,WNW,297,0.0,0.0,93,0.00,,,0.00,0,Wunderground v.1.15,2013-03-29 11:36:00,
2013-03-29 06:41:00,18.9,17.0,30.25,WNW,297,0.0,0.0,92,0.00,,,0.00,0,Wunderground v.1.15,2013-03-29 11:41:00,
2013-03-29 06:51:00,18.9,17.2,30.26,WNW,297,0.0,0.0,93,0.00,,,0.00,0,Wunderground v.1.15,2013-03-29 11:51:00,
2013-03-29 06:56:00,19.0,17.3,30.26,WNW,297,0.0,0.0,93,0.00,,,0.00,0,Wunderground v.1.15,2013-03-29 11:56:00,
2013-03-29 07:06:00,19.2,17.5,30.25,WNW,297,0.0,0.0,93,0.00,,,0.00,0,Wunderground v.1.15,2013-03-29 12:06:00,
2013-03-29 07:26:00,20.0,18.6,30.26,WNW,297,0.0,0.0,94,0.00,,,0.00,0,Wunderground v.1.15,2013-03-29 12:26:00,
2013-03-29 07:51:00,21.7,20.0,30.26,WNW,297,0.0,0.0,93,0.00,,,0.00,0,Wunderground v.1.15,2013-03-29 12:51:00,
2013-03-29 08:11:00,23.6,21.4,30.26,WNW,297,0.0,0.0,91,0.00,,,0.00,0,Wunderground v.1.15,2013-03-29 13:11:00,
2013-03-29 08:16:00,24.2,22.0,30.26,WNW,297,0.0,0.0,91,0.00,,,0.00,0,Wunderground v.1.15,2013-03-29 13:16:00,
2013-03-29 08:21:00,24.9,22.6,30.26,WNW,297,0.0,0.0,91,0.00,,,0.00,0,Wunderground v.1.15,2013-03-29 13:21:00,
2013-03-29 08:31:00,26.5,24.0,30.26,WNW,297,0.0,0.0,90,0.00,,,0.00,0,Wunderground v.1.15,2013-03-29 13:31:00,
2013-03-29 08:36:00,27.3,23.9,30.26,WNW,297,0.0,0.0,87,0.00,,,0.00,0,Wunderground v.1.15,2013-03-29 13:36:00,
2013-03-29 08:51:00,29.2,24.7,30.26,WNW,297,0.0,0.0,83,0.00,,,0.00,0,Wunderground v.1.15,2013-03-29 13:51:00,
2013-03-29 09:01:00,29.9,23.6,30.27,WNW,297,0.0,0.0,77,0.00,,,0.00,0,Wunderground v.1.15,2013-03-29 14:01:00,
2013-03-29 09:11:00,31.1,24.1,30.27,WNW,297,0.0,0.0,75,0.00,,,0.00,0,Wunderground v.1.15,2013-03-29 14:11:00,
2013-03-29 09:21:00,32.9,24.5,30.27,WNW,297,0.0,0.0,71,0.00,,,0.00,0,Wunderground v.1.15,2013-03-29 14:21:00,
2013-03-29 09:51:00,35.6,24.2,30.26,WNW,297,0.0,0.0,63,0.00,,,0.00,0,Wunderground v.1.15,2013-03-29 14:51:00,
2013-03-29 10:06:00,36.4,24.6,30.27,WNW,297,0.0,2.0,62,0.00,,,0.00,0,Wunderground v.1.15,2013-03-29 15:06:00,
2013-03-29 10:31:00,38.7,26.0,30.26,WNW,297,0.0,2.0,60,0.00,,,0.00,0,Wunderground v.1.15,2013-03-29 15:31:00,
2013-03-29 10:41:00,39.8,25.4,30.27,WNW,297,0.0,2.0,56,0.00,,,0.00,0,Wunderground v.1.15,2013-03-29 15:41:00,
2013-03-29 10:46:00,40.0,25.6,30.26,WNW,297,0.0,2.0,56,0.00,,,0.00,0,Wunderground v.1.15,2013-03-29 15:46:00,
2013-03-29 11:06:00,41.3,25.4,30.27,WNW,297,0.0,2.0,53,0.00,,,0.00,0,Wunderground v.1.15,2013-03-29 16:06:00,
2013-03-29 11:16:00,42.3,25.4,30.27,WNW,297,0.0,1.0,51,0.00,,,0.00,0,Wunderground v.1.15,2013-03-29 16:16:00,
2013-03-29 11:21:00,42.5,25.6,30.27,WNW,297,0.0,1.0,51,0.00,,,0.00,0,Wunderground v.1.15,2013-03-29 16:21:00,
2013-03-29 11:31:00,43.1,25.7,30.27,WNW,297,2.0,2.0,50,0.00,,,0.00,0,Wunderground v.1.15,2013-03-29 16:31:00,
2013-03-29 11:36:00,43.4,24.5,30.26,WNW,297,0.0,2.0,47,0.00,,,0.00,0,Wunderground v.1.15,2013-03-29 16:36:00,
2013-03-29 11:46:00,43.9,23.9,30.26,WNW,297,0.0,1.0,45,0.00,,,0.00,0,Wunderground v.1.15,2013-03-29 16:46:00,
2013-03-29 12:06:00,44.8,25.3,30.25,NW,307,0.0,3.0,46,0.00,,,0.00,0,Wunderground v.1.15,2013-03-29 17:06:00,
2013-03-29 12:21:00,45.2,25.6,30.25,WSW,239,1.0,3.0,46,0.00,,,0.00,0,Wunderground v.1.15,2013-03-29 17:21:00,
2013-03-29 12:31:00,46.2,25.5,30.25,SSW,197,3.0,3.0,44,0.00,,,0.00,0,Wunderground v.1.15,2013-03-29 17:31:00,
2013-03-29 12:36:00,46.5,25.2,30.25,SSW,193,0.0,3.0,43,0.00,,,0.00,0,Wunderground v.1.15,2013-03-29 17:36:00,
2013-03-29 12:41:00,46.9,26.1,30.24,SSE,164,3.0,3.0,44,0.00,,,0.00,0,Wunderground v.1.15,2013-03-29 17:41:00,
2013-03-29 12:51:00,47.5,25.5,30.24,SSE,167,4.0,4.0,42,0.00,,,0.00,0,Wunderground v.1.15,2013-03-29 17:51:00,
2013-03-29 13:06:00,47.9,25.3,30.23,South,172,0.0,6.0,41,0.00,,,0.00,0,Wunderground v.1.15,2013-03-29 18:06:00,
2013-03-29 13:11:00,48.2,26.2,30.23,SSE,163,4.0,6.0,42,0.00,,,0.00,0,Wunderground v.1.15,2013-03-29 18:11:00,
2013-03-29 13:31:00,48.3,25.7,30.23,South,188,4.0,6.0,41,0.00,,,0.00,0,Wunderground v.1.15,2013-03-29 18:31:00,
2013-03-29 13:41:00,48.5,25.2,30.23,South,184,3.0,6.0,40,0.00,,,0.00,0,Wunderground v.1.15,2013-03-29 18:41:00,
2013-03-29 13:51:00,48.8,24.9,30.22,SSW,192,6.0,6.0,39,0.00,,,0.00,0,Wunderground v.1.15,2013-03-29 18:51:00,
2013-03-29 14:06:00,49.2,25.3,30.22,South,184,4.0,7.0,39,0.00,,,0.00,0,Wunderground v.1.15,2013-03-29 19:06:00,
2013-03-29 14:16:00,49.4,25.4,30.22,SE,143,1.0,7.0,39,0.00,,,0.00,0,Wunderground v.1.15,2013-03-29 19:16:00,
2013-03-29 14:21:00,49.3,25.4,30.22,South,171,4.0,7.0,39,0.00,,,0.00,0,Wunderground v.1.15,2013-03-29 19:21:00,
2013-03-29 14:26:00,49.5,26.1,30.21,South,190,4.0,7.0,40,0.00,,,0.00,0,Wunderground v.1.15,2013-03-29 19:26:00,
2013-03-29 14:46:00,49.8,25.8,30.21,SSE,152,6.0,7.0,39,0.00,,,0.00,0,Wunderground v.1.15,2013-03-29 19:46:00,
2013-03-29 14:56:00,50.1,26.1,30.21,SSE,160,0.0,7.0,39,0.00,,,0.00,0,Wunderground v.1.15,2013-03-29 19:56:00,
2013-03-29 15:06:00,50.4,25.7,30.21,South,169,3.0,7.0,38,0.00,,,0.00,0,Wunderground v.1.15,2013-03-29 20:06:00,
2013-03-29 15:26:00,51.0,27.5,30.20,SW,217,0.0,5.0,40,0.00,,,0.00,0,Wunderground v.1.15,2013-03-29 20:26:00,
2013-03-29 15:41:00,51.0,26.9,30.19,SSW,201,1.0,5.0,39,0.00,,,0.00,0,Wunderground v.1.15,2013-03-29 20:41:00,
2013-03-29 15:56:00,51.2,27.1,30.19,SSW,201,2.0,5.0,39,0.00,,,0.00,0,Wunderground v.1.15,2013-03-29 20:56:00,
2013-03-29 16:06:00,51.3,26.5,30.18,SSW,213,1.0,5.0,38,0.00,,,0.00,0,Wunderground v.1.15,2013-03-29 21:06:00,
2013-03-29 16:16:00,51.5,27.3,30.19,South,188,1.0,4.0,39,0.00,,,0.00,0,Wunderground v.1.15,2013-03-29 21:16:00,
2013-03-29 16:21:00,51.5,27.3,30.18,South,188,1.0,4.0,39,0.00,,,0.00,0,Wunderground v.1.15,2013-03-29 21:21:00,
2013-03-29 16:46:00,51.3,25.9,30.18,SSW,213,1.0,4.0,37,0.00,,,0.00,0,Wunderground v.1.15,2013-03-29 21:46:00,
2013-03-29 16:51:00,51.4,27.2,30.17,SSW,213,0.0,4.0,39,0.00,,,0.00,0,Wunderground v.1.15,2013-03-29 21:51:00,
2013-03-29 17:01:00,51.5,26.7,30.18,SSW,213,0.0,4.0,38,0.00,,,0.00,0,Wunderground v.1.15,2013-03-29 22:01:00,
2013-03-29 17:11:00,51.6,26.8,30.17,SW,227,3.0,3.0,38,0.00,,,0.00,0,Wunderground v.1.15,2013-03-29 22:11:00,
2013-03-29 17:21:00,51.4,26.0,30.17,SW,227,0.0,2.0,37,0.00,,,0.00,0,Wunderground v.1.15,2013-03-29 22:21:00,
2013-03-29 17:31:00,51.2,25.1,30.17,SW,227,0.0,2.0,36,0.00,,,0.00,0,Wunderground v.1.15,2013-03-29 22:31:00,
2013-03-29 17:51:00,50.4,26.3,30.17,SW,227,0.0,2.0,39,0.00,,,0.00,0,Wunderground v.1.15,2013-03-29 22:51:00,
2013-03-29 18:06:00,49.4,25.4,30.17,SW,220,3.0,3.0,39,0.00,,,0.00,0,Wunderground v.1.15,2013-03-29 23:06:00,
2013-03-29 18:11:00,49.1,25.2,30.17,SW,220,2.0,2.0,39,0.00,,,0.00,0,Wunderground v.1.15,2013-03-29 23:11:00,
2013-03-29 18:21:00,48.4,25.2,30.17,SW,220,0.0,1.0,40,0.00,,,0.00,0,Wunderground v.1.15,2013-03-29 23:21:00,
2013-03-29 18:31:00,47.2,26.4,30.16,SW,220,1.0,1.0,44,0.00,,,0.00,0,Wunderground v.1.15,2013-03-29 23:31:00,
2013-03-29 18:46:00,45.0,25.4,30.16,SW,220,1.0,1.0,46,0.00,,,0.00,0,Wunderground v.1.15,2013-03-29 23:46:00,
2013-03-29 18:56:00,43.6,24.7,30.16,SW,220,0.0,1.0,47,0.00,,,0.00,0,Wunderground v.1.15,2013-03-29 23:56:00,
2013-03-29 19:06:00,42.7,23.8,30.16,SSE,149,0.0,4.0,47,0.00,,,0.00,0,Wunderground v.1.15,2013-03-30 00:06:00,
2013-03-29 19:11:00,42.1,23.8,30.16,SSE,149,0.0,4.0,48,0.00,,,0.00,0,Wunderground v.1.15,2013-03-30 00:11:00,
2013-03-29 19:21:00,41.0,24.2,30.16,SSE,149,3.0,4.0,51,0.00,,,0.00,0,Wunderground v.1.15,2013-03-30 00:21:00,
2013-03-29 19:36:00,39.9,25.5,30.15,SSE,149,3.0,4.0,56,0.00,,,0.00,0,Wunderground v.1.15,2013-03-30 00:36:00,
2013-03-29 19:46:00,39.5,24.2,30.15,SSE,159,0.0,4.0,54,0.00,,,0.00,0,Wunderground v.1.15,2013-03-30 00:46:00,
2013-03-29 19:56:00,39.2,24.8,30.15,SSE,159,0.0,4.0,56,0.00,,,0.00,0,Wunderground v.1.15,2013-03-30 00:56:00,
2013-03-29 20:16:00,37.6,24.1,30.16,SSE,159,0.0,3.0,58,0.00,,,0.00,0,Wunderground v.1.15,2013-03-30 01:16:00,
2013-03-29 20:26:00,36.7,24.5,30.16,SSE,159,2.0,3.0,61,0.00,,,0.00,0,Wunderground v.1.15,2013-03-30 01:26:00,
2013-03-29 20:31:00,36.4,24.6,30.16,SSE,159,2.0,3.0,62,0.00,,,0.00,0,Wunderground v.1.15,2013-03-30 01:31:00,
2013-03-29 20:36:00,36.1,24.7,30.16,SSE,159,2.0,3.0,63,0.00,,,0.00,0,Wunderground v.1.15,2013-03-30 01:36:00,
2013-03-29 20:46:00,35.7,25.1,30.15,SSE,159,2.0,3.0,65,0.00,,,0.00,0,Wunderground v.1.15,2013-03-30 01:46:00,
2013-03-29 20:56:00,35.1,24.5,30.16,SSE,159,0.0,3.0,65,0.00,,,0.00,0,Wunderground v.1.15,2013-03-30 01:56:00,
2013-03-29 21:01:00,34.7,24.5,30.16,SSE,159,0.0,3.0,66,0.00,,,0.00,0,Wunderground v.1.15,2013-03-30 02:01:00,
2013-03-29 21:11:00,34.2,24.0,30.16,SSE,159,0.0,0.0,66,0.00,,,0.00,0,Wunderground v.1.15,2013-03-30 02:11:00,
2013-03-29 21:16:00,34.1,24.3,30.16,SSE,159,0.0,0.0,67,0.00,,,0.00,0,Wunderground v.1.15,2013-03-30 02:16:00,
2013-03-29 21:41:00,33.3,24.6,30.15,SSE,159,0.0,0.0,70,0.00,,,0.00,0,Wunderground v.1.15,2013-03-30 02:41:00,
2013-03-29 21:51:00,33.0,24.3,30.16,SSE,159,0.0,0.0,70,0.00,,,0.00,0,Wunderground v.1.15,2013-03-30 02:51:00,
2013-03-29 22:01:00,32.6,23.9,30.15,SSE,159,0.0,0.0,70,0.00,,,0.00,0,Wunderground v.1.15,2013-03-30 03:01:00,
2013-03-29 22:06:00,32.5,23.8,30.15,SSE,159,0.0,2.0,70,0.00,,,0.00,0,Wunderground v.1.15,2013-03-30 03:06:00,
2013-03-29 22:21:00,32.2,22.8,30.15,SSE,159,2.0,2.0,68,0.00,,,0.00,0,Wunderground v.1.15,2013-03-30 03:21:00,
2013-03-29 22:36:00,31.7,22.7,30.15,SSE,159,0.0,2.0,69,0.00,,,0.00,0,Wunderground v.1.15,2013-03-30 03:36:00,
2013-03-29 22:46:00,31.6,23.3,30.15,SSE,159,2.0,3.0,71,0.00,,,0.00,0,Wunderground v.1.15,2013-03-30 03:46:00,
2013-03-29 22:51:00,31.7,23.7,30.15,SSE,159,0.0,2.0,72,0.00,,,0.00,0,Wunderground v.1.15,2013-03-30 03:51:00,
2013-03-29 23:01:00,31.8,23.8,30.15,SSE,159,0.0,2.0,72,0.00,,,0.00,0,Wunderground v.1.15,2013-03-30 04:01:00,
2013-03-29 23:06:00,31.8,23.8,30.15,SSE,159,0.0,2.0,72,0.00,,,0.00,0,Wunderground v.1.15,2013-03-30 04:06:00,
2013-03-29 23:21:00,32.5,23.8,30.15,SSE,159,0.0,0.0,70,0.00,,,0.00,0,Wunderground v.1.15,2013-03-30 04:21:00,
2013-03-29 23:26:00,32.7,24.3,30.15,SSE,159,0.0,0.0,71,0.00,,,0.00,0,Wunderground v.1.15,2013-03-30 04:26:00,
2013-03-29 23:36:00,33.0,25.0,30.15,SSE,159,0.0,0.0,72,0.00,,,0.00,0,Wunderground v.1.15,2013-03-30 04:36:00,
2013-03-29 23:41:00,33.1,25.1,30.15,SSE,159,0.0,0.0,72,0.00,,,0.00,0,Wunderground v.1.15,2013-03-30 04:41:00,
2013-03-29 23:51:00,33.3,25.6,30.15,SSE,159,3.0,3.0,73,0.00,,,0.00,0,Wunderground v.1.15,2013-03-30 04:51:00,